Skip Navigation LinksHome page > Weather > Current weather Skip Navigation Links

Current Weather

Chicago O'Hare Intl, Chicago

For information only: do not use for flight planning or navigation.
Latest weather
Observation time Saturday, February 13, 2016 10:51 AM CST
Local time Saturday, February 13, 2016 11:05 AM CST
Flight conditions Visual Meteorological Conditions
Winds
Wind direction West-Northwest (300°)
Wind speed 10 mph
Visibility 10 mi.
Sky condition
Ceiling unlimited
Cloud layer few clouds 3,500 ft.
Temperature 10°F
Dewpoint -8°F
Altimeter 30.59 in.Hg
Derived measurements
Relative humidity 43%
Wind chill -4°F
Density altitude -3503 ft.
Sea-level pressure 30.63 in.Hg
Remarks
Automated weather observing station with precipitation discriminator.
METAR KORD 131651Z 30009KT 10SM FEW035 M12/M22 A3059 RMK AO2 SLP373 T11221222

Settings

Location code

InnerDrive.Weather 4.0.5722.1 Release CLR 4.0.30319.34209
Copyright ©2015 Inner Drive Technology. All rights reserved. Portions Copyright ©1986-2015 David Braverman.

Find weather

Site navigation


Skip Navigation Links

Place info

Page info

PayPal - The safer, easier way to pay online!

Return home.

Copyright ©2016 Inner Drive Technology. Purveyors of fine, hand-crafted computer software. Page printed 2016-02-13T17:05:01 UTC.